Wetterdaten: Woche 14.04.03 - 20.04.03 (KW16)
Datum Zeit Temperatur Luftfeuchte Luftdruck Regenmenge Wind Richtung Taupunkt Windchill
14.04.2003 00:00 8.6 C 71 % 1019.0 hPa 0.0 l/m 1.0 km/h (0 Bft) SO 3.5 C 8.4 C
14.04.2003 01:00 7.2 C 75 % 1019.0 hPa 0.0 l/m 0.3 km/h (0 Bft) S-SO 3.0 C 7.2 C
14.04.2003 02:00 7.0 C 73 % 1019.0 hPa 0.0 l/m 4.2 km/h (1 Bft) SO 2.5 C 6.4 C
14.04.2003 03:00 5.4 C 77 % 1019.0 hPa 0.0 l/m 0.5 km/h (0 Bft) O-SO 1.7 C 5.4 C
14.04.2003 04:00 4.3 C 85 % 1019.0 hPa 0.0 l/m 2.5 km/h (1 Bft) SO 2.1 C 3.9 C
14.04.2003 05:00 3.5 C 89 % 1018.3 hPa 0.0 l/m 1.0 km/h (0 Bft) O-SO 1.9 C 3.4 C
14.04.2003 06:00 2.6 C 95 % 1018.6 hPa 0.0 l/m 0.1 km/h (0 Bft) N 1.9 C 2.6 C
14.04.2003 07:00 2.9 C 96 % 1019.0 hPa 0.0 l/m 0.0 km/h (0 Bft) N 2.3 C 2.9 C
14.04.2003 08:00 5.3 C 84 % 1019.0 hPa 0.0 l/m 0.2 km/h (0 Bft) O-SO 2.7 C 5.3 C
14.04.2003 09:00 9.4 C 65 % 1019.0 hPa 0.0 l/m 7.0 km/h (2 Bft) SO 3.2 C 8.9 C
14.04.2003 10:00 11.6 C 56 % 1019.0 hPa 0.0 l/m 7.6 km/h (2 Bft) O-SO 3.2 C 11.6 C
14.04.2003 11:00 14.3 C 49 % 1018.1 hPa 0.0 l/m 10.9 km/h (2 Bft) SO 3.9 C 14.3 C
14.04.2003 12:00 16.8 C 45 % 1018.0 hPa 0.0 l/m 16.0 km/h (3 Bft) SO 4.8 C 16.8 C
14.04.2003 13:00 18.4 C 41 % 1017.6 hPa 0.0 l/m 15.2 km/h (3 Bft) SO 4.8 C 18.4 C
14.04.2003 14:00 19.1 C 39 % 1016.9 hPa 0.0 l/m 28.1 km/h (4 Bft) SO 4.8 C 19.1 C
14.04.2003 15:00 20.6 C 34 % 1016.9 hPa 0.0 l/m 20.6 km/h (4 Bft) O-SO 4.3 C 20.6 C
14.04.2003 16:00 21.3 C 29 % 1016.4 hPa 0.0 l/m 20.0 km/h (4 Bft) O-SO 2.7 C 21.3 C
14.04.2003 17:00 21.2 C 29 % 1015.9 hPa 0.0 l/m 22.0 km/h (4 Bft) O-SO 2.5 C 21.2 C
14.04.2003 18:00 20.8 C 31 % 1015.9 hPa 0.0 l/m 15.3 km/h (3 Bft) O-SO 3.2 C 20.8 C
14.04.2003 19:00 19.1 C 33 % 1016.8 hPa 0.0 l/m 12.1 km/h (2 Bft) O-SO 2.4 C 19.1 C
14.04.2003 20:00 16.8 C 35 % 1017.1 hPa 0.0 l/m 2.5 km/h (1 Bft) O-NO 1.4 C 16.8 C
14.04.2003 21:00 15.5 C 35 % 1018.0 hPa 0.0 l/m 4.2 km/h (1 Bft) NO 0.2 C 15.5 C
14.04.2003 22:00 14.5 C 37 % 1018.4 hPa 0.0 l/m 3.5 km/h (1 Bft) NO -0.1 C 14.5 C
14.04.2003 23:00 11.5 C 50 % 1019.0 hPa 0.0 l/m 1.4 km/h (1 Bft) S-SO 1.4 C 11.5 C
15.04.2003 00:00 9.5 C 56 % 1019.0 hPa 0.0 l/m 4.8 km/h (1 Bft) O-SO 1.1 C 9.1 C
15.04.2003 01:00 8.3 C 60 % 1019.4 hPa 0.0 l/m 3.8 km/h (1 Bft) O-SO 1.0 C 7.9 C
15.04.2003 02:00 6.9 C 68 % 1019.9 hPa 0.0 l/m 2.1 km/h (1 Bft) O-SO 1.5 C 6.6 C
15.04.2003 03:00 6.3 C 74 % 1020.0 hPa 0.0 l/m 0.1 km/h (0 Bft) O-SO 2.0 C 6.3 C
15.04.2003 04:00 5.3 C 75 % 1020.0 hPa 0.0 l/m 1.2 km/h (1 Bft) O-SO 1.2 C 5.1 C
15.04.2003 05:00 5.0 C 81 % 1020.5 hPa 0.0 l/m 0.0 km/h (0 Bft) N 2.1 C 5.0 C
15.04.2003 06:00 4.1 C 90 % 1021.1 hPa 0.0 l/m 0.0 km/h (0 Bft) N 2.6 C 4.1 C
15.04.2003 07:00 4.7 C 87 % 1021.1 hPa 0.0 l/m 0.0 km/h (0 Bft) N 2.7 C 4.7 C
15.04.2003 08:00 6.6 C 75 % 1022.1 hPa 0.0 l/m 0.0 km/h (0 Bft) N 2.5 C 6.6 C
15.04.2003 09:00 10.2 C 64 % 1022.1 hPa 0.0 l/m 5.3 km/h (1 Bft) SO 3.6 C 10.1 C
15.04.2003 10:00 13.9 C 51 % 1022.1 hPa 0.0 l/m 7.5 km/h (2 Bft) O-SO 3.9 C 13.9 C
15.04.2003 11:00 16.2 C 46 % 1021.1 hPa 0.0 l/m 6.8 km/h (2 Bft) O-SO 4.5 C 16.2 C
15.04.2003 12:00 18.3 C 40 % 1021.1 hPa 0.0 l/m 6.1 km/h (2 Bft) O-SO 4.6 C 18.3 C
15.04.2003 13:00 20.3 C 35 % 1020.5 hPa 0.0 l/m 18.5 km/h (3 Bft) O-SO 4.3 C 20.3 C
15.04.2003 14:00 21.1 C 33 % 1020.1 hPa 0.0 l/m 26.2 km/h (4 Bft) O-SO 4.2 C 21.1 C
15.04.2003 15:00 21.9 C 33 % 1020.0 hPa 0.0 l/m 26.7 km/h (4 Bft) O-SO 5.0 C 21.9 C
15.04.2003 16:00 22.3 C 32 % 1019.4 hPa 0.0 l/m 24.2 km/h (4 Bft) O-SO 5.0 C 22.3 C
15.04.2003 17:00 22.0 C 32 % 1019.0 hPa 0.0 l/m 28.7 km/h (4 Bft) O-SO 4.6 C 22.0 C
15.04.2003 18:00 21.1 C 34 % 1019.0 hPa 0.0 l/m 21.4 km/h (4 Bft) O-SO 4.4 C 21.1 C
15.04.2003 19:00 19.6 C 36 % 1020.0 hPa 0.0 l/m 18.6 km/h (3 Bft) O-SO 4.1 C 19.6 C
15.04.2003 20:00 17.8 C 38 % 1020.0 hPa 0.0 l/m 6.9 km/h (2 Bft) O 3.4 C 17.8 C
15.04.2003 21:00 16.7 C 41 % 1021.1 hPa 0.0 l/m 4.2 km/h (1 Bft) O 3.3 C 16.7 C
15.04.2003 22:00 15.6 C 42 % 1021.1 hPa 0.0 l/m 2.1 km/h (1 Bft) N-NO 2.8 C 15.6 C
15.04.2003 23:00 14.6 C 48 % 1021.1 hPa 0.0 l/m 2.2 km/h (1 Bft) O-NO 3.8 C 14.6 C
16.04.2003 00:00 13.9 C 50 % 1021.1 hPa 0.0 l/m 1.5 km/h (1 Bft) O-NO 3.5 C 13.9 C
16.04.2003 01:00 12.8 C 54 % 1021.6 hPa 0.0 l/m 2.5 km/h (1 Bft) O 3.7 C 12.8 C
16.04.2003 02:00 11.1 C 61 % 1022.1 hPa 0.0 l/m 1.0 km/h (0 Bft) O-SO 3.8 C 11.1 C
16.04.2003 03:00 9.0 C 67 % 1022.1 hPa 0.0 l/m 4.0 km/h (1 Bft) O-SO 3.1 C 8.4 C
16.04.2003 04:00 8.4 C 71 % 1022.1 hPa 0.0 l/m 1.6 km/h (1 Bft) O-SO 3.3 C 8.2 C
16.04.2003 05:00 7.6 C 73 % 1022.1 hPa 0.0 l/m 3.8 km/h (1 Bft) O-SO 3.0 C 7.2 C
16.04.2003 06:00 6.5 C 74 % 1022.1 hPa 0.0 l/m 5.7 km/h (1 Bft) O-SO 2.3 C 5.5 C
16.04.2003 07:00 6.2 C 78 % 1022.9 hPa 0.0 l/m 2.1 km/h (1 Bft) O-SO 2.7 C 5.8 C
16.04.2003 08:00 8.5 C 72 % 1023.2 hPa 0.0 l/m 0.4 km/h (0 Bft) O 3.6 C 8.5 C
16.04.2003 09:00 12.7 C 53 % 1023.2 hPa 0.0 l/m 8.1 km/h (2 Bft) O-SO 3.4 C 12.7 C
16.04.2003 10:00 14.8 C 49 % 1023.2 hPa 0.0 l/m 7.8 km/h (2 Bft) O-SO 4.1 C 14.8 C
16.04.2003 11:00 16.5 C 45 % 1023.2 hPa 0.0 l/m 5.8 km/h (2 Bft) O-SO 4.4 C 16.5 C
16.04.2003 12:00 18.9 C 40 % 1023.2 hPa 0.0 l/m 12.0 km/h (2 Bft) O-SO 5.1 C 18.9 C
16.04.2003 13:00 20.2 C 40 % 1023.2 hPa 0.0 l/m 17.8 km/h (3 Bft) O-SO 6.2 C 20.2 C
16.04.2003 14:00 21.0 C 38 % 1022.3 hPa 0.0 l/m 19.3 km/h (3 Bft) O-SO 5.9 C 21.0 C
16.04.2003 15:00 21.8 C 34 % 1022.1 hPa 0.0 l/m 21.9 km/h (4 Bft) O-SO 5.0 C 21.8 C
16.04.2003 16:00 21.9 C 30 % 1021.6 hPa 0.0 l/m 19.2 km/h (3 Bft) O-SO 3.6 C 21.9 C
16.04.2003 17:00 21.5 C 31 % 1021.1 hPa 0.0 l/m 23.2 km/h (4 Bft) O-SO 3.5 C 21.5 C
16.04.2003 18:00 20.8 C 33 % 1021.2 hPa 0.0 l/m 23.0 km/h (4 Bft) O-SO 3.8 C 20.8 C
16.04.2003 19:00 19.6 C 36 % 1021.3 hPa 0.0 l/m 7.2 km/h (2 Bft) O-SO 4.0 C 19.6 C
16.04.2003 20:00 17.2 C 37 % 1022.1 hPa 0.0 l/m 1.9 km/h (1 Bft) NO 2.5 C 17.2 C
16.04.2003 21:00 16.3 C 37 % 1022.8 hPa 0.0 l/m 1.3 km/h (1 Bft) NO 1.3 C 16.3 C
16.04.2003 22:00 14.2 C 44 % 1023.2 hPa 0.0 l/m 0.0 km/h (0 Bft) N 2.0 C 14.2 C
16.04.2003 23:00 13.9 C 44 % 1023.2 hPa 0.0 l/m 0.2 km/h (0 Bft) N 1.9 C 13.9 C
17.04.2003 00:00 12.2 C 49 % 1023.2 hPa 0.0 l/m 0.9 km/h (0 Bft) O 1.7 C 12.2 C
17.04.2003 01:00 10.4 C 59 % 1023.2 hPa 0.0 l/m 4.8 km/h (1 Bft) SO 2.7 C 10.4 C
17.04.2003 02:00 9.5 C 63 % 1023.2 hPa 0.0 l/m 0.5 km/h (0 Bft) O-SO 2.9 C 9.5 C
17.04.2003 03:00 9.4 C 65 % 1023.9 hPa 0.0 l/m 0.3 km/h (0 Bft) O-SO 3.0 C 9.4 C
17.04.2003 04:00 8.2 C 72 % 1024.2 hPa 0.0 l/m 0.0 km/h (0 Bft) N 3.4 C 8.2 C
17.04.2003 05:00 8.4 C 66 % 1024.2 hPa 0.0 l/m 0.4 km/h (0 Bft) O 2.4 C 8.4 C
17.04.2003 06:00 7.7 C 68 % 1024.7 hPa 0.0 l/m 0.1 km/h (0 Bft) N 2.2 C 7.7 C
17.04.2003 07:00 8.0 C 66 % 1025.2 hPa 0.0 l/m 0.1 km/h (0 Bft) N 1.9 C 8.0 C
17.04.2003 08:00 10.4 C 53 % 1025.2 hPa 0.0 l/m 1.0 km/h (0 Bft) O-SO 1.1 C 10.4 C
17.04.2003 09:00 12.6 C 45 % 1025.2 hPa 0.0 l/m 11.5 km/h (2 Bft) O-SO 0.9 C 12.6 C
17.04.2003 10:00 14.1 C 41 % 1026.2 hPa 0.0 l/m 10.9 km/h (2 Bft) O-SO 0.9 C 14.1 C
17.04.2003 11:00 16.1 C 39 % 1026.1 hPa 0.0 l/m 12.1 km/h (2 Bft) O-SO 2.2 C 16.1 C
17.04.2003 12:00 18.0 C 38 % 1025.5 hPa 0.0 l/m 16.0 km/h (3 Bft) O-SO 3.3 C 18.0 C
17.04.2003 13:00 19.5 C 39 % 1025.2 hPa 0.0 l/m 18.6 km/h (3 Bft) O-SO 5.0 C 19.5 C
17.04.2003 14:00 19.8 C 40 % 1025.2 hPa 0.0 l/m 27.0 km/h (4 Bft) O-SO 5.7 C 19.8 C
17.04.2003 15:00 20.5 C 38 % 1024.9 hPa 0.0 l/m 25.4 km/h (4 Bft) O-SO 5.6 C 20.5 C
17.04.2003 16:00 20.7 C 35 % 1024.2 hPa 0.0 l/m 23.6 km/h (4 Bft) O-SO 4.6 C 20.7 C
17.04.2003 17:00 20.5 C 35 % 1024.6 hPa 0.0 l/m 15.6 km/h (3 Bft) O-SO 4.4 C 20.5 C
17.04.2003 18:00 19.8 C 33 % 1025.2 hPa 0.0 l/m 10.3 km/h (2 Bft) O 3.0 C 19.8 C
17.04.2003 19:00 18.5 C 30 % 1025.4 hPa 0.0 l/m 8.6 km/h (2 Bft) O 0.6 C 18.5 C
17.04.2003 20:00 16.6 C 31 % 1026.3 hPa 0.0 l/m 6.2 km/h (2 Bft) O -0.7 C 16.6 C
17.04.2003 21:00 15.2 C 31 % 1026.3 hPa 0.0 l/m 3.3 km/h (1 Bft) NO -1.7 C 15.2 C
17.04.2003 22:00 14.0 C 36 % 1026.5 hPa 0.0 l/m 2.1 km/h (1 Bft) O -1.0 C 14.0 C
17.04.2003 23:00 13.1 C 38 % 1027.3 hPa 0.0 l/m 2.4 km/h (1 Bft) O-SO -0.8 C 13.1 C
18.04.2003 00:00 12.6 C 37 % 1027.3 hPa 0.0 l/m 7.5 km/h (2 Bft) O-SO -1.8 C 12.6 C
18.04.2003 01:00 12.2 C 36 % 1027.3 hPa 0.0 l/m 4.3 km/h (1 Bft) NO -2.4 C 12.2 C
18.04.2003 02:00 11.0 C 41 % 1026.7 hPa 0.0 l/m 1.9 km/h (1 Bft) SO -1.9 C 11.0 C
18.04.2003 03:00 9.3 C 47 % 1026.3 hPa 0.0 l/m 2.1 km/h (1 Bft) O-SO -1.3 C 9.1 C
18.04.2003 04:00 7.7 C 55 % 1026.3 hPa 0.0 l/m 0.3 km/h (0 Bft) O -0.9 C 7.6 C
18.04.2003 05:00 5.7 C 64 % 1026.3 hPa 0.0 l/m 0.1 km/h (0 Bft) N -0.5 C 5.7 C
18.04.2003 06:00 5.0 C 68 % 1026.3 hPa 0.0 l/m 1.5 km/h (1 Bft) O -0.4 C 4.7 C
18.04.2003 07:00 5.8 C 65 % 1026.3 hPa 0.0 l/m 3.9 km/h (1 Bft) O-SO -0.3 C 5.0 C
18.04.2003 08:00 8.4 C 59 % 1026.3 hPa 0.0 l/m 0.9 km/h (0 Bft) O-SO 0.9 C 8.3 C
18.04.2003 09:00 12.3 C 45 % 1026.3 hPa 0.0 l/m 8.3 km/h (2 Bft) SO 0.5 C 12.3 C
18.04.2003 10:00 14.7 C 38 % 1025.7 hPa 0.0 l/m 10.6 km/h (2 Bft) O-SO 0.5 C 14.7 C
18.04.2003 11:00 16.9 C 34 % 1025.2 hPa 0.0 l/m 11.8 km/h (2 Bft) O-SO 1.0 C 16.9 C
18.04.2003 12:00 18.3 C 29 % 1024.2 hPa 0.0 l/m 16.0 km/h (3 Bft) O-SO -0.3 C 18.3 C
18.04.2003 13:00 19.2 C 28 % 1023.3 hPa 0.0 l/m 20.1 km/h (4 Bft) O-SO 0.1 C 19.2 C
18.04.2003 14:00 19.8 C 28 % 1022.5 hPa 0.0 l/m 19.6 km/h (3 Bft) O-SO 0.7 C 19.8 C
18.04.2003 15:00 20.1 C 28 % 1021.3 hPa 0.0 l/m 12.6 km/h (3 Bft) O-SO 1.2 C 20.1 C
18.04.2003 16:00 19.9 C 27 % 1020.4 hPa 0.0 l/m 5.7 km/h (1 Bft) N 0.4 C 19.9 C
18.04.2003 17:00 19.4 C 27 % 1019.8 hPa 0.0 l/m 3.3 km/h (1 Bft) O -0.1 C 19.4 C
18.04.2003 18:00 18.6 C 27 % 1019.0 hPa 0.0 l/m 4.1 km/h (1 Bft) NO -0.7 C 18.6 C
18.04.2003 19:00 16.8 C 28 % 1019.0 hPa 0.0 l/m 9.5 km/h (2 Bft) NO -1.8 C 16.8 C
18.04.2003 20:00 14.8 C 29 % 1019.0 hPa 0.0 l/m 7.5 km/h (2 Bft) O-NO -3.3 C 14.8 C
18.04.2003 21:00 13.1 C 33 % 1019.0 hPa 0.0 l/m 6.8 km/h (2 Bft) NO -2.7 C 13.1 C
18.04.2003 22:00 11.8 C 38 % 1019.0 hPa 0.0 l/m 5.1 km/h (1 Bft) NO -2.0 C 11.8 C
18.04.2003 23:00 10.4 C 43 % 1019.0 hPa 0.0 l/m 1.4 km/h (1 Bft) N-NO -1.8 C 10.4 C
19.04.2003 00:00 8.7 C 45 % 1019.0 hPa 0.0 l/m 3.1 km/h (1 Bft) NO -2.5 C 8.4 C
19.04.2003 01:00 7.1 C 50 % 1019.0 hPa 0.0 l/m 4.8 km/h (1 Bft) NO -2.5 C 6.4 C
19.04.2003 02:00 5.3 C 63 % 1019.0 hPa 0.0 l/m 4.7 km/h (1 Bft) O-SO -1.2 C 4.5 C
19.04.2003 03:00 3.3 C 70 % 1018.1 hPa 0.0 l/m 2.2 km/h (1 Bft) SO -1.5 C 3.0 C
19.04.2003 04:00 2.3 C 77 % 1017.8 hPa 0.0 l/m 2.5 km/h (1 Bft) O-SO -1.4 C 1.7 C
19.04.2003 05:00 2.0 C 79 % 1016.9 hPa 0.0 l/m 3.1 km/h (1 Bft) O-SO -1.3 C 1.4 C
19.04.2003 06:00 1.8 C 82 % 1016.6 hPa 0.0 l/m 2.3 km/h (1 Bft) SO -1.0 C 1.3 C
19.04.2003 07:00 3.0 C 75 % 1015.9 hPa 0.0 l/m 1.8 km/h (1 Bft) O -1.0 C 2.7 C
19.04.2003 08:00 4.7 C 66 % 1015.9 hPa 0.0 l/m 5.0 km/h (1 Bft) O -1.2 C 3.8 C
19.04.2003 09:00 6.0 C 62 % 1015.4 hPa 0.0 l/m 9.2 km/h (2 Bft) O-SO -0.9 C 4.4 C
19.04.2003 10:00 7.5 C 55 % 1014.8 hPa 0.0 l/m 14.0 km/h (3 Bft) O-SO -0.9 C 5.2 C
19.04.2003 11:00 8.5 C 50 % 1014.6 hPa 0.0 l/m 13.6 km/h (3 Bft) O -1.3 C 6.3 C
19.04.2003 12:00 10.7 C 46 % 1013.7 hPa 0.0 l/m 20.8 km/h (4 Bft) O-SO -0.5 C 10.4 C
19.04.2003 13:00 11.0 C 44 % 1012.2 hPa 0.0 l/m 7.1 km/h (2 Bft) O-SO -0.7 C 11.0 C
19.04.2003 14:00 12.6 C 41 % 1011.7 hPa 0.0 l/m 15.7 km/h (3 Bft) O-SO -0.3 C 12.6 C
19.04.2003 15:00 12.8 C 43 % 1011.4 hPa 0.0 l/m 11.5 km/h (2 Bft) O-SO 0.5 C 12.8 C
19.04.2003 16:00 12.8 C 44 % 1009.6 hPa 0.0 l/m 15.5 km/h (3 Bft) O-SO 0.7 C 12.8 C
19.04.2003 17:00 12.5 C 44 % 1009.6 hPa 0.0 l/m 21.4 km/h (4 Bft) O-SO 0.6 C 12.5 C
19.04.2003 18:00 12.0 C 45 % 1009.6 hPa 0.0 l/m 19.2 km/h (3 Bft) O-SO 0.5 C 12.0 C
19.04.2003 19:00 11.1 C 49 % 1009.6 hPa 0.0 l/m 9.4 km/h (2 Bft) O-SO 0.7 C 11.1 C
19.04.2003 20:00 9.7 C 53 % 1009.6 hPa 0.0 l/m 1.3 km/h (1 Bft) O 0.5 C 9.7 C
19.04.2003 21:00 8.6 C 57 % 1009.6 hPa 0.0 l/m 1.5 km/h (1 Bft) O 0.5 C 8.4 C
19.04.2003 22:00 7.9 C 58 % 1009.6 hPa 0.0 l/m 2.0 km/h (1 Bft) NO 0.2 C 7.8 C
19.04.2003 23:00 7.6 C 60 % 1009.6 hPa 0.0 l/m 2.8 km/h (1 Bft) O-NO 0.4 C 7.2 C
20.04.2003 00:00 7.4 C 64 % 1009.6 hPa 0.0 l/m 0.1 km/h (0 Bft) N 1.1 C 7.4 C
20.04.2003 01:00 7.1 C 63 % 1010.2 hPa 0.0 l/m 0.0 km/h (0 Bft) N 0.7 C 7.1 C
20.04.2003 02:00 6.9 C 71 % 1009.6 hPa 0.0 l/m 0.2 km/h (0 Bft) N-NO 2.0 C 6.9 C
20.04.2003 03:00 5.2 C 81 % 1010.4 hPa 0.0 l/m 3.9 km/h (1 Bft) SO 2.1 C 4.5 C
20.04.2003 04:00 4.0 C 86 % 1010.7 hPa 0.0 l/m 3.2 km/h (1 Bft) O-SO 1.9 C 3.3 C
20.04.2003 05:00 2.8 C 92 % 1010.7 hPa 0.0 l/m 3.3 km/h (1 Bft) O-SO 1.5 C 2.1 C
20.04.2003 06:00 2.1 C 97 % 1010.7 hPa 0.0 l/m 3.0 km/h (1 Bft) O-SO 1.6 C 1.5 C
20.04.2003 07:00 3.0 C 93 % 1010.7 hPa 0.0 l/m 0.2 km/h (0 Bft) O-SO 2.0 C 3.0 C
20.04.2003 08:00 4.9 C 83 % 1010.7 hPa 0.0 l/m 0.7 km/h (0 Bft) O-NO 2.3 C 4.8 C
20.04.2003 09:00 7.5 C 71 % 1010.7 hPa 0.0 l/m 1.0 km/h (0 Bft) O-SO 2.5 C 7.4 C
20.04.2003 10:00 10.6 C 61 % 1010.1 hPa 0.0 l/m 4.3 km/h (1 Bft) SO 3.4 C 10.5 C
20.04.2003 11:00 13.9 C 53 % 1009.6 hPa 0.0 l/m 7.4 km/h (2 Bft) O-SO 4.4 C 13.9 C
20.04.2003 12:00 16.3 C 45 % 1009.5 hPa 0.0 l/m 14.7 km/h (3 Bft) SO 4.4 C 16.3 C
20.04.2003 13:00 18.6 C 37 % 1008.6 hPa 0.0 l/m 10.3 km/h (2 Bft) O-SO 3.5 C 18.6 C
20.04.2003 14:00 20.5 C 29 % 1008.5 hPa 0.0 l/m 9.7 km/h (2 Bft) SO 1.9 C 20.5 C
20.04.2003 15:00 22.3 C 27 % 1007.6 hPa 0.0 l/m 22.6 km/h (4 Bft) SO 2.2 C 22.3 C
20.04.2003 16:00 22.2 C 28 % 1007.6 hPa 0.0 l/m 14.4 km/h (3 Bft) O-SO 2.7 C 22.2 C
20.04.2003 17:00 21.6 C 27 % 1007.6 hPa 0.0 l/m 5.0 km/h (1 Bft) SO 1.9 C 21.6 C
20.04.2003 18:00 20.8 C 27 % 1007.7 hPa 0.0 l/m 7.0 km/h (2 Bft) S 1.4 C 20.8 C
20.04.2003 19:00 17.9 C 29 % 1008.6 hPa 0.0 l/m 6.0 km/h (2 Bft) SO -0.4 C 17.9 C
20.04.2003 20:00 14.0 C 39 % 1009.2 hPa 0.0 l/m 5.5 km/h (1 Bft) O-SO 0.2 C 14.0 C
20.04.2003 21:00 12.2 C 44 % 1009.9 hPa 0.0 l/m 1.1 km/h (1 Bft) SO 0.3 C 12.2 C
20.04.2003 22:00 10.5 C 47 % 1010.7 hPa 0.0 l/m 1.8 km/h (1 Bft) O -0.2 C 10.5 C
20.04.2003 23:00 8.4 C 60 % 1010.9 hPa 0.0 l/m 0.7 km/h (0 Bft) O 1.2 C 8.4 C
Min-Datum _ 19.04.03 18.04.03 20.04.03 - 14.04.03 - 18.04.03 19.04.03
_ Min-Zeit 06:12 12:35 15:00 - 00:04 - 20:29 04:45
Minimum _ 1.4 C 25 % 1007.6 hPa - 0.0 km/h (0 Bft) - -4.6 C -1.0 C
Max-Datum _ 20.04.03 14.04.03 17.04.03 14.04.03 15.04.03 - 16.04.03 20.04.03
_ Max-Zeit 15:46 07:22 22:50 00:01 16:56 - 13:15 15:46
Maximum _ 22.8 C 99 % 1027.3 hPa 0.0 l/m 45.0 km/h
O-SO (6 Bft)
- 7.0 C 22.8 C
Durchschnitt _ 12.6 C 51 % 1018.9 hPa #0.0 l/m 7.7 km/h (2 Bft) O-SO 1.8 C 12.5 C

Durchschnitt Minimum Temp.11.5 C
Durchschnitt Maximum Temp.13.7 C
© Kaiko 2003